createdAt,value
2022-08-31T00:01:09.239Z,20.85
2022-08-31T00:05:11.137Z,20.84
2022-08-31T00:09:12.697Z,20.82
2022-08-31T00:13:14.352Z,20.85
2022-08-31T00:17:16.617Z,20.87
2022-08-31T00:21:19.962Z,20.81
2022-08-31T00:25:21.402Z,20.81
2022-08-31T00:29:23.070Z,20.80
2022-08-31T00:33:24.758Z,20.76
2022-08-31T00:37:26.482Z,20.73
2022-08-31T00:41:30.441Z,20.70
2022-08-31T00:45:32.116Z,20.67
2022-08-31T00:49:38.360Z,20.66
2022-08-31T00:53:39.934Z,20.72
2022-08-31T00:57:45.173Z,20.77
2022-08-31T01:01:47.043Z,20.77
2022-08-31T01:05:50.593Z,20.68
2022-08-31T01:09:55.575Z,20.69
2022-08-31T01:13:58.554Z,20.69
2022-08-31T01:18:06.668Z,20.66
2022-08-31T01:22:19.289Z,20.59
2022-08-31T01:26:25.674Z,20.47
2022-08-31T01:30:27.109Z,20.47
2022-08-31T01:34:28.592Z,20.43
2022-08-31T01:38:31.818Z,20.40
2022-08-31T01:42:34.221Z,20.40
2022-08-31T01:46:36.130Z,20.36
2022-08-31T01:50:37.712Z,20.33
2022-08-31T01:54:39.358Z,20.28
2022-08-31T01:58:41.327Z,20.24
2022-08-31T02:02:43.083Z,20.25
2022-08-31T02:06:48.616Z,20.17
2022-08-31T02:10:50.602Z,20.11
2022-08-31T02:14:52.548Z,20.13
2022-08-31T02:18:54.093Z,20.14
2022-08-31T02:22:55.645Z,20.01
2022-08-31T02:26:57.429Z,19.91
2022-08-31T02:30:58.934Z,19.82
2022-08-31T02:35:00.419Z,19.77
2022-08-31T02:39:02.101Z,19.77
2022-08-31T02:43:05.767Z,19.81
2022-08-31T02:47:07.162Z,19.83
2022-08-31T02:51:10.125Z,19.85
2022-08-31T02:55:11.678Z,19.86
2022-08-31T02:59:13.256Z,19.81
2022-08-31T03:03:15.434Z,19.75
2022-08-31T03:07:16.876Z,19.64
2022-08-31T03:11:19.666Z,19.53
2022-08-31T03:15:23.685Z,19.55
2022-08-31T03:19:25.373Z,19.55
2022-08-31T03:23:26.921Z,19.55
2022-08-31T03:27:31.987Z,19.54
2022-08-31T03:31:33.709Z,19.45
2022-08-31T03:35:35.741Z,19.43
2022-08-31T03:39:38.069Z,19.43
2022-08-31T03:43:39.661Z,19.42
2022-08-31T03:47:44.533Z,19.45
2022-08-31T03:51:46.765Z,19.42
2022-08-31T03:55:48.361Z,19.38
2022-08-31T03:59:54.038Z,19.37
2022-08-31T04:03:55.694Z,19.28
2022-08-31T04:07:57.441Z,19.21
2022-08-31T04:11:59.092Z,19.14
2022-08-31T04:16:00.971Z,19.15
2022-08-31T04:20:03.480Z,19.16
2022-08-31T04:24:04.994Z,19.13
2022-08-31T04:28:09.067Z,19.12
2022-08-31T04:32:10.969Z,19.16
2022-08-31T04:36:17.501Z,19.11
2022-08-31T04:40:19.701Z,19.07
2022-08-31T04:44:21.810Z,18.99
2022-08-31T04:48:23.269Z,18.99
2022-08-31T04:52:24.722Z,19.00
2022-08-31T04:56:32.450Z,19.02
2022-08-31T05:00:34.299Z,19.02
2022-08-31T05:04:35.796Z,18.99
2022-08-31T05:08:37.693Z,18.94
2022-08-31T05:12:39.419Z,18.92
2022-08-31T05:16:42.113Z,18.93
2022-08-31T05:20:43.746Z,18.85
2022-08-31T05:24:45.388Z,18.88
2022-08-31T05:28:47.292Z,18.94
2022-08-31T05:32:48.982Z,18.99
2022-08-31T05:36:54.369Z,19.04
2022-08-31T05:40:58.571Z,19.12
2022-08-31T05:45:00.133Z,19.20
2022-08-31T05:49:02.257Z,19.27
2022-08-31T05:53:03.673Z,19.34
2022-08-31T05:57:05.370Z,19.45
2022-08-31T06:01:25.187Z,19.58
2022-08-31T06:05:29.086Z,19.71
2022-08-31T06:09:30.863Z,19.79
2022-08-31T06:13:32.731Z,19.90
2022-08-31T06:17:35.081Z,20.01
2022-08-31T06:21:50.494Z,20.10
2022-08-31T06:25:52.196Z,20.21
2022-08-31T06:29:53.881Z,20.32
2022-08-31T06:33:56.611Z,20.46
2022-08-31T06:37:58.427Z,20.59
2022-08-31T06:41:59.949Z,20.74
2022-08-31T06:46:02.365Z,20.89
2022-08-31T06:50:04.404Z,21.04
2022-08-31T06:54:28.082Z,21.12
2022-08-31T06:58:29.565Z,21.15
2022-08-31T07:02:31.310Z,21.13
2022-08-31T07:06:36.565Z,21.13
2022-08-31T07:10:38.249Z,21.14
2022-08-31T07:14:58.189Z,21.15
2022-08-31T07:19:08.877Z,21.23
2022-08-31T07:23:14.508Z,21.33
2022-08-31T07:27:38.164Z,21.49
2022-08-31T07:31:47.193Z,21.64
2022-08-31T07:36:22.330Z,21.68
2022-08-31T07:40:45.991Z,21.68
2022-08-31T07:45:01.834Z,21.73
2022-08-31T07:49:08.011Z,21.75
2022-08-31T07:53:44.598Z,21.83
2022-08-31T08:02:38.291Z,22.52
2022-08-31T08:06:42.574Z,22.55
2022-08-31T08:10:52.230Z,22.61
2022-08-31T08:14:59.885Z,22.69
2022-08-31T08:19:01.797Z,22.81
2022-08-31T08:23:06.941Z,22.80
2022-08-31T08:27:13.677Z,22.97
2022-08-31T08:31:18.492Z,23.36
2022-08-31T08:35:20.221Z,23.95
2022-08-31T08:39:21.970Z,24.36
2022-08-31T08:43:31.122Z,24.37
2022-08-31T08:47:37.779Z,24.55
2022-08-31T08:51:40.462Z,24.65
2022-08-31T08:55:43.296Z,24.56
2022-08-31T08:59:47.166Z,24.47
2022-08-31T09:04:17.129Z,24.28
2022-08-31T09:08:24.967Z,24.10
2022-08-31T09:12:31.097Z,24.05
2022-08-31T09:16:40.846Z,23.97
2022-08-31T09:20:42.342Z,23.82
2022-08-31T09:24:44.633Z,23.73
2022-08-31T09:28:48.611Z,23.60
2022-08-31T09:32:57.781Z,23.55
2022-08-31T09:37:14.967Z,23.44
2022-08-31T09:41:40.278Z,23.38
2022-08-31T09:46:05.142Z,23.30
2022-08-31T09:50:10.380Z,23.32
2022-08-31T09:54:35.402Z,23.32
2022-08-31T09:58:36.942Z,23.35
2022-08-31T10:02:42.640Z,23.34
2022-08-31T10:06:47.063Z,23.34
2022-08-31T10:10:51.395Z,23.34
2022-08-31T10:15:02.450Z,23.42
2022-08-31T10:19:12.162Z,23.46
2022-08-31T10:23:34.712Z,23.51
2022-08-31T10:27:42.882Z,23.52
2022-08-31T10:31:50.865Z,23.58
2022-08-31T10:36:01.103Z,23.70
2022-08-31T10:40:19.759Z,23.89
2022-08-31T10:44:36.348Z,24.21
2022-08-31T10:48:42.569Z,24.80
2022-08-31T10:53:05.885Z,25.32
2022-08-31T10:57:31.417Z,25.71
2022-08-31T11:02:00.783Z,26.21
2022-08-31T11:06:29.965Z,26.50
2022-08-31T11:10:51.952Z,26.86
2022-08-31T11:15:15.806Z,27.20
2022-08-31T11:19:31.687Z,27.54
2022-08-31T11:23:44.916Z,27.87
2022-08-31T11:28:09.169Z,27.92
2022-08-31T11:32:21.588Z,27.63
2022-08-31T11:36:49.995Z,27.45
2022-08-31T11:41:00.485Z,27.04
2022-08-31T11:45:05.882Z,27.08
2022-08-31T11:49:10.912Z,27.18
2022-08-31T11:53:25.261Z,27.50
2022-08-31T11:57:36.942Z,27.89
2022-08-31T12:01:45.085Z,27.84
2022-08-31T12:05:56.379Z,27.66
2022-08-31T12:10:07.068Z,27.68
2022-08-31T12:14:40.066Z,27.54
2022-08-31T12:19:04.766Z,27.46
2022-08-31T12:23:40.679Z,27.30
2022-08-31T12:28:04.624Z,27.23
2022-08-31T12:32:54.320Z,27.36
2022-08-31T12:36:56.107Z,27.64
2022-08-31T12:40:58.071Z,27.88
2022-08-31T12:44:59.698Z,28.21
2022-08-31T12:49:23.524Z,28.36
2022-08-31T12:53:49.819Z,28.17
2022-08-31T12:58:07.563Z,27.94
2022-08-31T13:02:13.031Z,27.73
2022-08-31T13:06:23.406Z,27.84
2022-08-31T13:10:29.601Z,27.98
2022-08-31T13:14:40.938Z,27.90
2022-08-31T13:18:42.479Z,27.65
2022-08-31T13:22:48.388Z,27.75
2022-08-31T13:27:05.453Z,28.13
2022-08-31T13:31:11.978Z,28.42
2022-08-31T13:35:19.950Z,28.64
2022-08-31T13:39:34.833Z,28.70
2022-08-31T13:43:37.619Z,28.83
2022-08-31T13:47:56.871Z,28.80
2022-08-31T13:52:00.232Z,28.77
2022-08-31T13:56:40.490Z,28.60
2022-08-31T14:00:43.433Z,28.23
2022-08-31T14:05:00.621Z,28.21
2022-08-31T14:09:16.606Z,28.44
2022-08-31T14:13:25.257Z,28.42
2022-08-31T14:17:26.941Z,28.63
2022-08-31T14:21:34.349Z,28.84
2022-08-31T14:25:35.751Z,28.84
2022-08-31T14:29:40.418Z,28.86
2022-08-31T14:33:43.801Z,28.83
2022-08-31T14:37:45.669Z,28.50
2022-08-31T14:41:47.694Z,28.16
2022-08-31T14:45:50.958Z,27.84
2022-08-31T14:49:52.446Z,27.62
2022-08-31T14:53:57.200Z,27.46
2022-08-31T14:58:08.368Z,27.24
2022-08-31T15:02:12.741Z,27.04
2022-08-31T15:06:17.181Z,26.89
2022-08-31T15:10:21.940Z,26.70
2022-08-31T15:14:23.845Z,26.52
2022-08-31T15:18:25.989Z,26.36
2022-08-31T15:22:27.937Z,26.28
2022-08-31T15:26:30.133Z,26.21
2022-08-31T15:30:33.746Z,26.13
2022-08-31T15:34:35.822Z,26.07
2022-08-31T15:38:40.033Z,26.26
2022-08-31T15:42:42.094Z,26.47
2022-08-31T15:47:02.013Z,26.45
2022-08-31T15:55:26.528Z,26.79
2022-08-31T15:59:28.304Z,27.10
2022-08-31T16:03:34.342Z,26.94
2022-08-31T16:07:37.297Z,27.04
2022-08-31T16:11:39.891Z,27.35
2022-08-31T16:15:48.141Z,27.68
2022-08-31T16:19:51.035Z,27.44
2022-08-31T16:24:00.563Z,27.04
2022-08-31T16:28:02.607Z,26.88
2022-08-31T16:32:06.564Z,26.70
2022-08-31T16:36:17.052Z,26.44
2022-08-31T16:40:18.920Z,26.14
2022-08-31T16:44:20.607Z,25.93
2022-08-31T16:48:40.979Z,25.70
2022-08-31T16:52:44.513Z,25.47
2022-08-31T16:56:52.046Z,25.28
2022-08-31T17:00:55.306Z,25.18
2022-08-31T17:05:00.538Z,25.06
2022-08-31T17:09:05.119Z,24.97
2022-08-31T17:13:07.378Z,24.88
2022-08-31T17:17:10.678Z,24.75
2022-08-31T17:21:16.014Z,24.65
2022-08-31T17:25:18.623Z,24.54
2022-08-31T17:29:22.086Z,24.40
2022-08-31T17:33:26.292Z,24.32
2022-08-31T17:37:36.528Z,24.22
2022-08-31T17:41:40.074Z,24.09
2022-08-31T17:45:41.751Z,23.98
2022-08-31T17:49:46.629Z,23.89
2022-08-31T17:53:48.367Z,23.80
2022-08-31T17:57:50.029Z,23.71
2022-08-31T18:01:53.956Z,23.61
2022-08-31T18:05:55.547Z,23.47
2022-08-31T18:09:57.322Z,23.35
2022-08-31T18:13:58.773Z,23.22
2022-08-31T18:18:00.758Z,23.08
2022-08-31T18:22:02.697Z,22.89
2022-08-31T18:26:14.309Z,22.70
2022-08-31T18:30:15.905Z,22.49
2022-08-31T18:34:21.314Z,22.33
2022-08-31T18:38:22.844Z,22.20
2022-08-31T18:42:42.846Z,21.97
2022-08-31T18:46:45.534Z,21.76
2022-08-31T18:50:49.121Z,21.60
2022-08-31T18:54:52.819Z,21.45
2022-08-31T18:58:54.279Z,21.35
2022-08-31T19:02:55.672Z,21.26
2022-08-31T19:06:58.208Z,21.14
2022-08-31T19:11:00.267Z,21.05
2022-08-31T19:15:03.537Z,20.95
2022-08-31T19:19:05.187Z,20.96
2022-08-31T19:23:08.120Z,21.00
2022-08-31T19:27:10.282Z,21.04
2022-08-31T19:31:11.880Z,21.06
2022-08-31T19:35:13.584Z,21.08
2022-08-31T19:39:18.403Z,21.11
2022-08-31T19:47:41.336Z,21.20
2022-08-31T19:51:47.284Z,21.21
2022-08-31T19:55:51.218Z,21.26
2022-08-31T19:59:52.887Z,21.30
2022-08-31T20:03:57.154Z,21.34
2022-08-31T20:07:58.578Z,21.34
2022-08-31T20:12:01.992Z,21.34
2022-08-31T20:16:07.686Z,21.34
2022-08-31T20:20:12.347Z,21.31
2022-08-31T20:24:14.053Z,21.30
2022-08-31T20:28:16.051Z,21.30
2022-08-31T20:32:17.474Z,21.27
2022-08-31T20:36:27.175Z,21.23
2022-08-31T20:40:28.779Z,21.22
2022-08-31T20:44:35.906Z,21.18
2022-08-31T20:48:55.739Z,21.13
2022-08-31T20:52:57.293Z,21.07
2022-08-31T20:57:01.183Z,20.93
2022-08-31T21:01:07.689Z,20.83
2022-08-31T21:05:37.124Z,20.72
2022-08-31T21:09:32.049Z,20.50
2022-08-31T21:13:33.770Z,20.32
2022-08-31T21:17:35.316Z,20.28
2022-08-31T21:21:36.769Z,20.17
2022-08-31T21:25:43.925Z,19.95
2022-08-31T21:29:47.058Z,19.84
2022-08-31T21:33:48.538Z,19.68
2022-08-31T21:37:50.369Z,19.52
2022-08-31T21:41:51.912Z,19.40
2022-08-31T21:46:08.086Z,19.24
2022-08-31T21:50:09.737Z,19.06
2022-08-31T21:54:13.946Z,18.91
2022-08-31T21:58:15.450Z,18.76
2022-08-31T22:02:16.966Z,18.62
2022-08-31T22:06:27.070Z,18.52
2022-08-31T22:10:30.400Z,18.43
2022-08-31T22:14:36.317Z,18.33
2022-08-31T22:19:00.816Z,18.22
2022-08-31T22:23:04.421Z,18.12
2022-08-31T22:27:11.629Z,18.05
2022-08-31T22:31:16.112Z,17.94
2022-08-31T22:35:19.931Z,17.85
2022-08-31T22:39:28.682Z,17.77
2022-08-31T22:43:30.260Z,17.68
2022-08-31T22:47:31.737Z,17.63
2022-08-31T22:51:35.866Z,17.55
2022-08-31T22:55:38.320Z,17.46
2022-08-31T22:59:39.991Z,17.37
2022-08-31T23:03:42.747Z,17.32
2022-08-31T23:07:44.240Z,17.19
2022-08-31T23:11:45.635Z,17.19
2022-08-31T23:15:50.176Z,17.13
2022-08-31T23:19:54.321Z,17.06
2022-08-31T23:23:56.573Z,17.02
2022-08-31T23:28:00.171Z,17.00
2022-08-31T23:36:26.248Z,16.91
2022-08-31T23:40:31.012Z,16.82
2022-08-31T23:44:33.402Z,16.76
2022-08-31T23:48:34.893Z,16.70
2022-08-31T23:52:41.459Z,16.66
2022-08-31T23:56:45.831Z,16.64
